createdAt,value
2018-08-19T00:00:03.763Z,19.54
2018-08-19T00:00:07.536Z,19.54
2018-08-19T00:00:11.731Z,19.53
2018-08-19T00:00:15.923Z,19.53
2018-08-19T00:00:20.123Z,19.53
2018-08-19T00:00:24.211Z,19.53
2018-08-19T00:00:28.408Z,19.53
2018-08-19T00:00:32.716Z,19.53
2018-08-19T00:00:37.019Z,19.53
2018-08-19T00:00:41.328Z,19.53
2018-08-19T00:00:45.465Z,19.53
2018-08-19T00:00:49.557Z,19.53
2018-08-19T00:00:53.862Z,19.53
2018-08-19T00:00:58.059Z,19.53
2018-08-19T00:01:02.173Z,19.52
2018-08-19T00:01:06.375Z,19.52
2018-08-19T00:01:10.681Z,19.52
2018-08-19T00:01:14.980Z,19.52
2018-08-19T00:01:19.189Z,19.52
2018-08-19T00:01:23.383Z,19.52
2018-08-19T00:01:27.582Z,19.52
2018-08-19T00:01:31.687Z,19.52
2018-08-19T00:01:35.887Z,19.52
2018-08-19T00:01:40.088Z,19.51
2018-08-19T00:01:44.397Z,19.51
2018-08-19T00:01:48.706Z,19.51
2018-08-19T00:01:53.024Z,19.51
2018-08-19T00:01:57.225Z,19.51
2018-08-19T00:02:01.534Z,19.51
2018-08-19T00:02:05.683Z,19.51
2018-08-19T00:02:09.885Z,19.51
2018-08-19T00:02:14.099Z,19.5
2018-08-19T00:02:18.403Z,19.5
2018-08-19T00:02:22.605Z,19.51
2018-08-19T00:02:26.699Z,19.5
2018-08-19T00:02:31.000Z,19.51
2018-08-19T00:02:35.256Z,19.51
2018-08-19T00:02:39.454Z,19.51
2018-08-19T00:02:43.754Z,19.5
2018-08-19T00:02:47.847Z,19.5
2018-08-19T00:02:51.831Z,19.5
2018-08-19T00:02:56.032Z,19.49
2018-08-19T00:03:00.332Z,19.49
2018-08-19T00:03:04.328Z,19.5
2018-08-19T00:03:08.636Z,19.5
2018-08-19T00:03:12.835Z,19.49
2018-08-19T00:03:17.036Z,19.5
2018-08-19T00:03:21.344Z,19.5
2018-08-19T00:03:25.434Z,19.49
2018-08-19T00:03:29.741Z,19.49
2018-08-19T00:03:33.845Z,19.49
2018-08-19T00:03:38.040Z,19.49
2018-08-19T00:03:42.131Z,19.49
2018-08-19T00:03:46.224Z,19.49
2018-08-19T00:03:50.435Z,19.49
2018-08-19T00:03:54.635Z,19.48
2018-08-19T00:03:58.729Z,19.49
2018-08-19T00:04:02.937Z,19.48
2018-08-19T00:04:07.242Z,19.49
2018-08-19T00:04:11.336Z,19.48
2018-08-19T00:04:15.543Z,19.48
2018-08-19T00:04:19.845Z,19.48
2018-08-19T00:04:24.048Z,19.48
2018-08-19T00:04:28.140Z,19.48
2018-08-19T00:04:32.236Z,19.47
2018-08-19T00:04:36.440Z,19.47
2018-08-19T00:04:40.645Z,19.48
2018-08-19T00:04:44.841Z,19.48
2018-08-19T00:04:49.046Z,19.47
2018-08-19T00:04:53.248Z,19.47
2018-08-19T00:04:57.340Z,19.47
2018-08-19T00:05:01.543Z,19.47
2018-08-19T00:05:05.635Z,19.47
2018-08-19T00:05:09.839Z,19.46
2018-08-19T00:05:14.140Z,19.46
2018-08-19T00:05:18.446Z,19.46
2018-08-19T00:05:22.744Z,19.47
2018-08-19T00:05:27.050Z,19.46
2018-08-19T00:05:31.363Z,19.46
2018-08-19T00:05:35.467Z,19.46
2018-08-19T00:05:39.776Z,19.45
2018-08-19T00:05:43.864Z,19.45
2018-08-19T00:05:48.061Z,19.45
2018-08-19T00:05:52.259Z,19.44
2018-08-19T00:05:56.564Z,19.45
2018-08-19T00:06:00.773Z,19.45
2018-08-19T00:06:05.138Z,19.44
2018-08-19T00:06:09.335Z,19.44
2018-08-19T00:06:13.531Z,19.45
2018-08-19T00:06:17.514Z,19.44
2018-08-19T00:06:21.608Z,19.44
2018-08-19T00:06:25.798Z,19.44
2018-08-19T00:06:29.891Z,19.44
2018-08-19T00:06:34.086Z,19.44
2018-08-19T00:06:38.291Z,19.44
2018-08-19T00:06:42.388Z,19.43
2018-08-19T00:06:46.616Z,19.44
2018-08-19T00:06:50.816Z,19.44
2018-08-19T00:06:55.014Z,19.43
2018-08-19T00:06:59.106Z,19.44
2018-08-19T00:07:03.199Z,19.43
2018-08-19T00:07:07.518Z,19.43
2018-08-19T00:07:11.823Z,19.42
2018-08-19T00:07:15.915Z,19.43
2018-08-19T00:07:20.005Z,19.42
2018-08-19T00:07:24.205Z,19.43
2018-08-19T00:07:28.298Z,19.43
2018-08-19T00:07:32.497Z,19.42
2018-08-19T00:07:36.697Z,19.43
2018-08-19T00:07:40.890Z,19.41
2018-08-19T00:07:45.088Z,19.41
2018-08-19T00:07:49.329Z,19.42
2018-08-19T00:07:53.527Z,19.42
2018-08-19T00:07:57.830Z,19.41
2018-08-19T00:08:01.920Z,19.41
2018-08-19T00:08:06.013Z,19.41
2018-08-19T00:08:10.102Z,19.41
2018-08-19T00:08:14.422Z,19.4
2018-08-19T00:08:18.739Z,19.4
2018-08-19T00:08:22.838Z,19.41
2018-08-19T00:08:27.151Z,19.4
2018-08-19T00:08:31.346Z,19.41
2018-08-19T00:08:35.541Z,19.41
2018-08-19T00:08:39.857Z,19.41
2018-08-19T00:08:44.056Z,19.4
2018-08-19T00:08:48.257Z,19.4
2018-08-19T00:08:52.245Z,19.4
2018-08-19T00:08:56.448Z,19.4
2018-08-19T00:09:00.430Z,19.4
2018-08-19T00:09:04.624Z,19.4
2018-08-19T00:09:08.817Z,19.39
2018-08-19T00:09:13.127Z,19.39
2018-08-19T00:09:17.325Z,19.39
2018-08-19T00:09:21.416Z,19.39
2018-08-19T00:09:25.516Z,19.39
2018-08-19T00:09:29.503Z,19.38
2018-08-19T00:09:33.704Z,19.39
2018-08-19T00:09:37.902Z,19.38
2018-08-19T00:09:42.103Z,19.39
2018-08-19T00:09:46.300Z,19.38
2018-08-19T00:09:50.506Z,19.38
2018-08-19T00:09:54.603Z,19.38
2018-08-19T00:09:58.809Z,19.37
2018-08-19T00:10:02.907Z,19.37
2018-08-19T00:10:06.788Z,19.37
2018-08-19T00:10:11.106Z,19.37
2018-08-19T00:10:15.305Z,19.37
2018-08-19T00:10:19.616Z,19.37
2018-08-19T00:10:23.927Z,19.38
2018-08-19T00:10:28.022Z,19.37
2018-08-19T00:10:32.009Z,19.38
2018-08-19T00:10:36.205Z,19.36
2018-08-19T00:10:40.400Z,19.36
2018-08-19T00:10:44.716Z,19.36
2018-08-19T00:10:49.065Z,19.36
2018-08-19T00:10:53.258Z,19.36
2018-08-19T00:10:57.353Z,19.36
2018-08-19T00:11:01.545Z,19.36
2018-08-19T00:11:05.900Z,19.36
2018-08-19T00:11:10.096Z,19.36
2018-08-19T00:11:14.290Z,19.36
2018-08-19T00:11:18.487Z,19.35
2018-08-19T00:11:22.688Z,19.35
2018-08-19T00:11:26.996Z,19.35
2018-08-19T00:11:31.087Z,19.35
2018-08-19T00:11:35.192Z,19.35
2018-08-19T00:11:39.504Z,19.34
2018-08-19T00:11:43.589Z,19.35
2018-08-19T00:11:47.797Z,19.34
2018-08-19T00:11:51.883Z,19.34
2018-08-19T00:11:56.088Z,19.34
2018-08-19T00:12:00.286Z,19.34
2018-08-19T00:12:04.383Z,19.35
2018-08-19T00:12:08.368Z,19.34
2018-08-19T00:12:12.672Z,19.33
2018-08-19T00:12:16.871Z,19.33
2018-08-19T00:12:20.964Z,19.34
2018-08-19T00:12:25.174Z,19.33
2018-08-19T00:12:29.265Z,19.33
2018-08-19T00:12:33.359Z,19.33
2018-08-19T00:12:37.350Z,19.33
2018-08-19T00:12:41.605Z,19.32
2018-08-19T00:12:45.799Z,19.32
2018-08-19T00:12:49.894Z,19.32
2018-08-19T00:12:54.094Z,19.32
2018-08-19T00:12:58.288Z,19.32
2018-08-19T00:13:02.591Z,19.32
2018-08-19T00:13:06.788Z,19.32
2018-08-19T00:13:10.984Z,19.32
2018-08-19T00:13:15.295Z,19.32
2018-08-19T00:13:19.490Z,19.31
2018-08-19T00:13:23.687Z,19.32
2018-08-19T00:13:27.993Z,19.31
2018-08-19T00:13:32.084Z,19.31
2018-08-19T00:13:36.184Z,19.32
2018-08-19T00:13:40.383Z,19.31
2018-08-19T00:13:44.691Z,19.32
2018-08-19T00:13:48.885Z,19.31
2018-08-19T00:13:52.975Z,19.3
2018-08-19T00:13:57.174Z,19.31
2018-08-19T00:14:01.490Z,19.3
2018-08-19T00:14:05.478Z,19.3
2018-08-19T00:14:09.577Z,19.29
2018-08-19T00:14:13.776Z,19.29
2018-08-19T00:14:18.079Z,19.3
2018-08-19T00:14:22.176Z,19.3
2018-08-19T00:14:26.268Z,19.29
2018-08-19T00:14:30.259Z,19.3
2018-08-19T00:14:34.454Z,19.29
2018-08-19T00:14:38.763Z,19.29
2018-08-19T00:14:42.960Z,19.29
2018-08-19T00:14:47.164Z,19.28
2018-08-19T00:14:51.471Z,19.29
2018-08-19T00:14:55.461Z,19.28
2018-08-19T00:14:59.775Z,19.28
2018-08-19T00:15:03.656Z,19.28
2018-08-19T00:15:07.751Z,19.28
2018-08-19T00:15:11.839Z,19.29
2018-08-19T00:15:16.039Z,19.28
2018-08-19T00:15:20.347Z,19.28
2018-08-19T00:15:24.449Z,19.28
2018-08-19T00:15:28.537Z,19.27
2018-08-19T00:15:32.732Z,19.28
2018-08-19T00:15:37.032Z,19.28
2018-08-19T00:15:41.237Z,19.27
2018-08-19T00:15:45.440Z,19.28
2018-08-19T00:15:49.746Z,19.28
2018-08-19T00:15:53.732Z,19.27
2018-08-19T00:15:58.039Z,19.27
2018-08-19T00:16:02.234Z,19.27
2018-08-19T00:16:06.544Z,19.27
2018-08-19T00:16:10.748Z,19.27
2018-08-19T00:16:14.846Z,19.28
2018-08-19T00:16:19.153Z,19.27
2018-08-19T00:16:23.144Z,19.27
2018-08-19T00:16:27.238Z,19.27
2018-08-19T00:16:31.330Z,19.27
2018-08-19T00:16:35.527Z,19.26
2018-08-19T00:16:39.736Z,19.26
2018-08-19T00:16:43.943Z,19.26
2018-08-19T00:16:48.041Z,19.26
2018-08-19T00:16:52.345Z,19.26
2018-08-19T00:16:56.436Z,19.26
2018-08-19T00:17:00.423Z,19.26
2018-08-19T00:17:04.634Z,19.26
2018-08-19T00:17:08.936Z,19.26
2018-08-19T00:17:13.133Z,19.26
2018-08-19T00:17:17.340Z,19.25
2018-08-19T00:17:21.541Z,19.25
2018-08-19T00:17:25.527Z,19.25
2018-08-19T00:17:29.519Z,19.25
2018-08-19T00:17:33.614Z,19.25
2018-08-19T00:17:37.922Z,19.25
2018-08-19T00:17:42.226Z,19.25
2018-08-19T00:17:46.426Z,19.25
2018-08-19T00:17:50.725Z,19.25
2018-08-19T00:17:54.815Z,19.24
2018-08-19T00:17:59.014Z,19.25
2018-08-19T00:18:03.104Z,19.24
2018-08-19T00:18:07.298Z,19.25
2018-08-19T00:18:11.396Z,19.25
2018-08-19T00:18:15.488Z,19.24
2018-08-19T00:18:19.683Z,19.24
2018-08-19T00:18:23.985Z,19.24
2018-08-19T00:18:28.194Z,19.24
2018-08-19T00:18:32.502Z,19.25
2018-08-19T00:18:36.817Z,19.24
2018-08-19T00:18:41.120Z,19.24
2018-08-19T00:18:45.429Z,19.24
2018-08-19T00:18:49.743Z,19.24
2018-08-19T00:18:53.943Z,19.24
2018-08-19T00:18:58.138Z,19.23
2018-08-19T00:19:02.230Z,19.23
2018-08-19T00:19:06.330Z,19.24
2018-08-19T00:19:10.229Z,19.23
2018-08-19T00:19:14.425Z,19.23
2018-08-19T00:19:18.727Z,19.23
2018-08-19T00:19:23.076Z,19.23
2018-08-19T00:19:27.169Z,19.23
2018-08-19T00:19:31.367Z,19.24
2018-08-19T00:19:35.668Z,19.23
2018-08-19T00:19:39.981Z,19.24
2018-08-19T00:19:44.075Z,19.23
2018-08-19T00:19:48.386Z,19.22
2018-08-19T00:19:52.484Z,19.22
2018-08-19T00:19:56.583Z,19.23
2018-08-19T00:20:00.885Z,19.22
2018-08-19T00:20:05.129Z,19.22
2018-08-19T00:20:09.325Z,19.22
2018-08-19T00:20:13.631Z,19.22
2018-08-19T00:20:17.945Z,19.22
2018-08-19T00:20:22.143Z,19.22
2018-08-19T00:20:26.234Z,19.23
2018-08-19T00:20:30.329Z,19.22
2018-08-19T00:20:34.422Z,19.23
2018-08-19T00:20:38.622Z,19.22
2018-08-19T00:20:42.824Z,19.22
2018-08-19T00:20:47.031Z,19.22
2018-08-19T00:20:51.352Z,19.22
2018-08-19T00:20:55.661Z,19.23
2018-08-19T00:20:59.970Z,19.22
2018-08-19T00:21:04.114Z,19.22
2018-08-19T00:21:08.318Z,19.22
2018-08-19T00:21:12.668Z,19.22
2018-08-19T00:21:16.665Z,19.22
2018-08-19T00:21:20.760Z,19.22
2018-08-19T00:21:24.965Z,19.22
2018-08-19T00:21:29.168Z,19.22
2018-08-19T00:21:33.159Z,19.22
2018-08-19T00:21:37.304Z,19.22
2018-08-19T00:21:41.759Z,19.22
2018-08-19T00:21:46.426Z,19.21
2018-08-19T00:21:50.459Z,19.22
2018-08-19T00:21:54.754Z,19.22
2018-08-19T00:21:59.084Z,19.22
2018-08-19T00:22:03.185Z,19.21
2018-08-19T00:22:07.402Z,19.21
2018-08-19T00:22:11.712Z,19.22
2018-08-19T00:22:15.964Z,19.22
2018-08-19T00:22:20.276Z,19.22
2018-08-19T00:22:24.585Z,19.22
2018-08-19T00:22:28.793Z,19.23
2018-08-19T00:22:32.893Z,19.22
2018-08-19T00:22:37.208Z,19.22
2018-08-19T00:22:41.411Z,19.22
2018-08-19T00:22:45.719Z,19.21
2018-08-19T00:22:50.030Z,19.21
2018-08-19T00:22:54.240Z,19.21
2018-08-19T00:22:58.346Z,19.2
2018-08-19T00:23:02.702Z,19.2
2018-08-19T00:23:06.905Z,19.21
2018-08-19T00:23:11.223Z,19.21
2018-08-19T00:23:15.210Z,19.21
2018-08-19T00:23:19.527Z,19.21
2018-08-19T00:23:23.622Z,19.21
2018-08-19T00:23:27.824Z,19.21
2018-08-19T00:23:31.919Z,19.22
2018-08-19T00:23:36.116Z,19.21
2018-08-19T00:23:40.419Z,19.21
2018-08-19T00:23:44.625Z,19.21
2018-08-19T00:23:48.943Z,19.21
2018-08-19T00:23:53.260Z,19.21
2018-08-19T00:23:57.459Z,19.21
2018-08-19T00:24:01.443Z,19.21
2018-08-19T00:24:05.533Z,19.21
2018-08-19T00:24:09.628Z,19.2
2018-08-19T00:24:13.831Z,19.21
2018-08-19T00:24:18.029Z,19.21
2018-08-19T00:24:22.125Z,19.21
2018-08-19T00:24:26.322Z,19.22
2018-08-19T00:24:30.532Z,19.2
2018-08-19T00:24:34.840Z,19.21
2018-08-19T00:24:39.045Z,19.21
2018-08-19T00:24:43.240Z,19.21
2018-08-19T00:24:47.445Z,19.22
2018-08-19T00:24:51.534Z,19.21
2018-08-19T00:24:55.739Z,19.21
2018-08-19T00:24:59.957Z,19.21
2018-08-19T00:25:04.058Z,19.21
2018-08-19T00:25:08.155Z,19.2
2018-08-19T00:25:12.460Z,19.21
2018-08-19T00:25:16.445Z,19.21
2018-08-19T00:25:20.535Z,19.21
2018-08-19T00:25:24.531Z,19.2
2018-08-19T00:25:28.622Z,19.2
2018-08-19T00:25:32.618Z,19.21
2018-08-19T00:25:36.917Z,19.2
2018-08-19T00:25:41.221Z,19.2
2018-08-19T00:25:45.526Z,19.2
2018-08-19T00:25:49.847Z,19.21
2018-08-19T00:25:54.046Z,19.2
2018-08-19T00:25:58.257Z,19.21
2018-08-19T00:26:02.500Z,19.21
2018-08-19T00:26:06.594Z,19.2
2018-08-19T00:26:10.793Z,19.2
2018-08-19T00:26:15.111Z,19.21
2018-08-19T00:26:19.311Z,19.21
2018-08-19T00:26:23.510Z,19.2
2018-08-19T00:26:27.707Z,19.21
2018-08-19T00:26:31.802Z,19.21
2018-08-19T00:26:35.894Z,19.21
2018-08-19T00:26:40.099Z,19.2
2018-08-19T00:26:44.301Z,19.2
2018-08-19T00:26:48.611Z,19.21
2018-08-19T00:26:52.711Z,19.2
2018-08-19T00:26:56.800Z,19.21
2018-08-19T00:27:00.997Z,19.2
2018-08-19T00:27:05.135Z,19.21
2018-08-19T00:27:09.330Z,19.21
2018-08-19T00:27:13.536Z,19.21
2018-08-19T00:27:17.741Z,19.2
2018-08-19T00:27:21.838Z,19.21
2018-08-19T00:27:26.032Z,19.21
2018-08-19T00:27:30.344Z,19.21
2018-08-19T00:27:34.657Z,19.21
2018-08-19T00:27:39.003Z,19.21
2018-08-19T00:27:43.309Z,19.2
2018-08-19T00:27:47.612Z,19.21
2018-08-19T00:27:51.717Z,19.21
2018-08-19T00:27:56.025Z,19.21
2018-08-19T00:28:00.227Z,19.21
2018-08-19T00:28:04.420Z,19.21
2018-08-19T00:28:08.624Z,19.2
2018-08-19T00:28:12.822Z,19.21
2018-08-19T00:28:16.914Z,19.21
2018-08-19T00:28:21.119Z,19.21
2018-08-19T00:28:25.363Z,19.2
2018-08-19T00:28:29.664Z,19.21
2018-08-19T00:28:33.759Z,19.22
2018-08-19T00:28:38.063Z,19.21
2018-08-19T00:28:42.263Z,19.21
2018-08-19T00:28:46.572Z,19.2
2018-08-19T00:28:50.769Z,19.21
2018-08-19T00:28:55.078Z,19.21
2018-08-19T00:28:59.284Z,19.2
2018-08-19T00:29:03.492Z,19.21
2018-08-19T00:29:07.692Z,19.21
2018-08-19T00:29:11.890Z,19.21
2018-08-19T00:29:16.090Z,19.21
2018-08-19T00:29:20.394Z,19.2
2018-08-19T00:29:24.483Z,19.21
2018-08-19T00:29:28.588Z,19.2
2018-08-19T00:29:32.567Z,19.2
2018-08-19T00:29:36.565Z,19.2
2018-08-19T00:29:40.663Z,19.21
2018-08-19T00:29:44.753Z,19.21
2018-08-19T00:29:48.844Z,19.19
2018-08-19T00:29:53.150Z,19.21
2018-08-19T00:29:57.350Z,19.2
2018-08-19T00:30:01.440Z,19.21
2018-08-19T00:30:05.429Z,19.2
2018-08-19T00:30:09.630Z,19.21
2018-08-19T00:30:13.725Z,19.2
2018-08-19T00:30:17.924Z,19.2
2018-08-19T00:30:22.123Z,19.21
2018-08-19T00:30:26.217Z,19.2
2018-08-19T00:30:30.319Z,19.2
2018-08-19T00:30:34.304Z,19.21
2018-08-19T00:30:38.502Z,19.2
2018-08-19T00:30:42.815Z,19.2
2018-08-19T00:30:47.120Z,19.2
2018-08-19T00:30:51.423Z,19.21
2018-08-19T00:30:55.616Z,19.21
2018-08-19T00:30:59.707Z,19.2
2018-08-19T00:31:03.898Z,19.21
2018-08-19T00:31:08.200Z,19.2
2018-08-19T00:31:12.401Z,19.2
2018-08-19T00:31:16.493Z,19.2
2018-08-19T00:31:20.795Z,19.2
2018-08-19T00:31:25.095Z,19.2
2018-08-19T00:31:29.295Z,19.2
2018-08-19T00:31:33.606Z,19.2
2018-08-19T00:31:37.699Z,19.2
2018-08-19T00:31:42.011Z,19.19
2018-08-19T00:31:45.890Z,19.2
2018-08-19T00:31:49.874Z,19.2
2018-08-19T00:31:54.074Z,19.19
2018-08-19T00:31:58.378Z,19.2
2018-08-19T00:32:02.367Z,19.19
2018-08-19T00:32:06.353Z,19.2
2018-08-19T00:32:10.551Z,19.21
2018-08-19T00:32:14.767Z,19.2
2018-08-19T00:32:18.966Z,19.2
2018-08-19T00:32:23.165Z,19.2
2018-08-19T00:32:27.370Z,19.2
2018-08-19T00:32:31.571Z,19.19
2018-08-19T00:32:35.660Z,19.19
2018-08-19T00:32:39.849Z,19.19
2018-08-19T00:32:44.047Z,19.2
2018-08-19T00:32:48.354Z,19.19
2018-08-19T00:32:52.658Z,19.19
2018-08-19T00:32:56.854Z,19.19
2018-08-19T00:33:00.956Z,19.2
2018-08-19T00:33:05.164Z,19.19
2018-08-19T00:33:09.478Z,19.2
2018-08-19T00:33:13.802Z,19.2
2018-08-19T00:33:18.110Z,19.2
2018-08-19T00:33:22.204Z,19.2
2018-08-19T00:33:26.191Z,19.2
2018-08-19T00:33:30.489Z,19.2
2018-08-19T00:33:34.799Z,19.2
2018-08-19T00:33:39.110Z,19.2
2018-08-19T00:33:43.312Z,19.2
2018-08-19T00:33:47.508Z,19.2
2018-08-19T00:33:51.607Z,19.2
2018-08-19T00:33:55.805Z,19.2
2018-08-19T00:34:00.108Z,19.2
2018-08-19T00:34:04.201Z,19.2
2018-08-19T00:34:08.507Z,19.2
2018-08-19T00:34:12.704Z,19.2
2018-08-19T00:34:16.912Z,19.19
2018-08-19T00:34:21.001Z,19.2
2018-08-19T00:34:25.345Z,19.19
2018-08-19T00:34:29.334Z,19.2
2018-08-19T00:34:33.534Z,19.2
2018-08-19T00:34:37.837Z,19.19
2018-08-19T00:34:42.140Z,19.19
2018-08-19T00:34:46.339Z,19.2
2018-08-19T00:34:50.440Z,19.19
2018-08-19T00:34:54.640Z,19.19
2018-08-19T00:34:58.946Z,19.19
2018-08-19T00:35:02.832Z,19.2
2018-08-19T00:35:07.053Z,19.2
2018-08-19T00:35:11.038Z,19.2
2018-08-19T00:35:15.129Z,19.2
2018-08-19T00:35:19.119Z,19.2
2018-08-19T00:35:23.313Z,19.2
2018-08-19T00:35:27.515Z,19.2
2018-08-19T00:35:31.823Z,19.19
2018-08-19T00:35:36.023Z,19.19
2018-08-19T00:35:40.217Z,19.19
2018-08-19T00:35:44.421Z,19.18
2018-08-19T00:35:48.723Z,19.19
2018-08-19T00:35:52.921Z,19.19
2018-08-19T00:35:57.117Z,19.2
2018-08-19T00:36:01.316Z,19.2
2018-08-19T00:36:05.464Z,19.2
2018-08-19T00:36:09.557Z,19.2
2018-08-19T00:36:13.753Z,19.19
2018-08-19T00:36:18.050Z,19.19
2018-08-19T00:36:22.143Z,19.19
2018-08-19T00:36:26.443Z,19.2
2018-08-19T00:36:30.546Z,19.2
2018-08-19T00:36:34.753Z,19.2
2018-08-19T00:36:38.947Z,19.2
2018-08-19T00:36:43.249Z,19.18
2018-08-19T00:36:47.456Z,19.19
2018-08-19T00:36:51.662Z,19.2
2018-08-19T00:36:55.752Z,19.19
2018-08-19T00:36:59.851Z,19.19
2018-08-19T00:37:03.844Z,19.2
2018-08-19T00:37:08.147Z,19.19
2018-08-19T00:37:12.344Z,19.19
2018-08-19T00:37:16.555Z,19.19
2018-08-19T00:37:20.538Z,19.2
2018-08-19T00:37:24.842Z,19.19
2018-08-19T00:37:29.038Z,19.19
2018-08-19T00:37:33.137Z,19.19
2018-08-19T00:37:37.119Z,19.19
2018-08-19T00:37:41.417Z,19.19
2018-08-19T00:37:45.722Z,19.19
2018-08-19T00:37:50.026Z,19.19
2018-08-19T00:37:54.224Z,19.19
2018-08-19T00:37:58.425Z,19.19
2018-08-19T00:38:02.619Z,19.19
2018-08-19T00:38:06.973Z,19.19
2018-08-19T00:38:11.280Z,19.19
2018-08-19T00:38:15.594Z,19.19
2018-08-19T00:38:19.797Z,19.19
2018-08-19T00:38:23.995Z,19.19
2018-08-19T00:38:27.982Z,19.18
2018-08-19T00:38:31.868Z,19.19
2018-08-19T00:38:36.167Z,19.19
2018-08-19T00:38:40.370Z,19.19
2018-08-19T00:38:44.714Z,19.19
2018-08-19T00:38:48.911Z,19.19
2018-08-19T00:38:53.110Z,19.19
2018-08-19T00:38:57.410Z,19.19
2018-08-19T00:39:01.735Z,19.19
2018-08-19T00:39:05.724Z,19.19
2018-08-19T00:39:09.924Z,19.2
2018-08-19T00:39:14.129Z,19.19
2018-08-19T00:39:18.222Z,19.19
2018-08-19T00:39:22.320Z,19.2
2018-08-19T00:39:26.413Z,19.2
2018-08-19T00:39:30.609Z,19.19
2018-08-19T00:39:34.819Z,19.19
2018-08-19T00:39:39.031Z,19.19
2018-08-19T00:39:43.233Z,19.19
2018-08-19T00:39:47.323Z,19.19
2018-08-19T00:39:51.524Z,19.19
2018-08-19T00:39:55.729Z,19.2
2018-08-19T00:39:59.926Z,19.2
2018-08-19T00:40:03.645Z,19.2
2018-08-19T00:40:07.636Z,19.2
2018-08-19T00:40:11.854Z,19.2
2018-08-19T00:40:16.161Z,19.19
2018-08-19T00:40:20.364Z,19.2
2018-08-19T00:40:24.670Z,19.19
2018-08-19T00:40:28.980Z,19.19
2018-08-19T00:40:33.076Z,19.2
2018-08-19T00:40:37.280Z,19.2
2018-08-19T00:40:41.477Z,19.2
2018-08-19T00:40:45.780Z,19.2
2018-08-19T00:40:50.098Z,19.2
2018-08-19T00:40:54.296Z,19.19
2018-08-19T00:40:58.600Z,19.19
2018-08-19T00:41:02.804Z,19.2
2018-08-19T00:41:07.003Z,19.2
2018-08-19T00:41:10.999Z,19.2
2018-08-19T00:41:15.199Z,19.2
2018-08-19T00:41:19.403Z,19.19
2018-08-19T00:41:23.614Z,19.2
2018-08-19T00:41:27.817Z,19.2
2018-08-19T00:41:32.019Z,19.2
2018-08-19T00:41:36.321Z,19.2
2018-08-19T00:41:40.419Z,19.2
2018-08-19T00:41:44.727Z,19.19
2018-08-19T00:41:48.925Z,19.2
2018-08-19T00:41:53.233Z,19.2
2018-08-19T00:41:57.439Z,19.2
2018-08-19T00:42:01.644Z,19.2
2018-08-19T00:42:05.738Z,19.2
2018-08-19T00:42:09.945Z,19.2
2018-08-19T00:42:14.035Z,19.2
2018-08-19T00:42:18.026Z,19.2
2018-08-19T00:42:22.118Z,19.21
2018-08-19T00:42:26.318Z,19.2
2018-08-19T00:42:30.630Z,19.19
2018-08-19T00:42:34.728Z,19.2
2018-08-19T00:42:38.926Z,19.2
2018-08-19T00:42:43.230Z,19.2
2018-08-19T00:42:47.432Z,19.19
2018-08-19T00:42:51.744Z,19.19
2018-08-19T00:42:56.049Z,19.19
2018-08-19T00:43:00.149Z,19.2
2018-08-19T00:43:04.358Z,19.21
2018-08-19T00:43:08.465Z,19.2
2018-08-19T00:43:12.674Z,19.2
2018-08-19T00:43:16.873Z,19.19
2018-08-19T00:43:21.230Z,19.2
2018-08-19T00:43:25.431Z,19.19
2018-08-19T00:43:29.636Z,19.19
2018-08-19T00:43:33.958Z,19.2
2018-08-19T00:43:38.163Z,19.2
2018-08-19T00:43:42.472Z,19.2
2018-08-19T00:43:46.568Z,19.19
2018-08-19T00:43:50.791Z,19.2
2018-08-19T00:43:55.095Z,19.19
2018-08-19T00:43:59.450Z,19.19
2018-08-19T00:44:03.591Z,19.2
2018-08-19T00:44:07.793Z,19.19
2018-08-19T00:44:12.001Z,19.19
2018-08-19T00:44:16.307Z,19.2
2018-08-19T00:44:20.513Z,19.2
2018-08-19T00:44:24.713Z,19.19
2018-08-19T00:44:28.911Z,19.2
2018-08-19T00:44:32.900Z,19.19
2018-08-19T00:44:37.104Z,19.2
2018-08-19T00:44:40.998Z,19.2
2018-08-19T00:44:45.300Z,19.2
2018-08-19T00:44:49.503Z,19.19
2018-08-19T00:44:53.717Z,19.19
2018-08-19T00:44:57.913Z,19.2
2018-08-19T00:45:02.015Z,19.2
2018-08-19T00:45:06.155Z,19.2
2018-08-19T00:45:10.354Z,19.19
2018-08-19T00:45:14.552Z,19.19
2018-08-19T00:45:18.754Z,19.19
2018-08-19T00:45:22.847Z,19.19
2018-08-19T00:45:27.056Z,19.19
2018-08-19T00:45:31.364Z,19.19
2018-08-19T00:45:35.567Z,19.2
2018-08-19T00:45:39.879Z,19.19
2018-08-19T00:45:44.192Z,19.19
2018-08-19T00:45:48.501Z,19.2
2018-08-19T00:45:52.694Z,19.19
2018-08-19T00:45:56.784Z,19.2
2018-08-19T00:46:01.090Z,19.2
2018-08-19T00:46:05.387Z,19.19
2018-08-19T00:46:09.488Z,19.19
2018-08-19T00:46:13.690Z,19.19
2018-08-19T00:46:17.786Z,19.19
2018-08-19T00:46:21.926Z,19.19
2018-08-19T00:46:26.235Z,19.19
2018-08-19T00:46:30.434Z,19.19
2018-08-19T00:46:34.535Z,19.19
2018-08-19T00:46:38.736Z,19.2
2018-08-19T00:46:43.052Z,19.2
2018-08-19T00:46:47.143Z,19.2
2018-08-19T00:46:51.239Z,19.19
2018-08-19T00:46:55.440Z,19.19
2018-08-19T00:46:59.642Z,19.19
2018-08-19T00:47:03.964Z,19.19
2018-08-19T00:47:08.056Z,19.19
2018-08-19T00:47:12.256Z,19.19
2018-08-19T00:47:16.348Z,19.19
2018-08-19T00:47:20.444Z,19.19
2018-08-19T00:47:24.642Z,19.19
2018-08-19T00:47:28.735Z,19.2
2018-08-19T00:47:32.970Z,19.2
2018-08-19T00:47:37.278Z,19.2
2018-08-19T00:47:41.604Z,19.19
2018-08-19T00:47:45.910Z,19.19
2018-08-19T00:47:50.122Z,19.19
2018-08-19T00:47:54.316Z,19.19
2018-08-19T00:47:58.618Z,19.2
2018-08-19T00:48:02.815Z,19.19
2018-08-19T00:48:07.016Z,19.19
2018-08-19T00:48:11.327Z,19.19
2018-08-19T00:48:15.629Z,19.19
2018-08-19T00:48:19.939Z,19.2
2018-08-19T00:48:24.032Z,19.19
2018-08-19T00:48:28.234Z,19.19
2018-08-19T00:48:32.540Z,19.18
2018-08-19T00:48:36.840Z,19.19
2018-08-19T00:48:41.145Z,19.19
2018-08-19T00:48:45.241Z,19.18
2018-08-19T00:48:49.543Z,19.19
2018-08-19T00:48:53.738Z,19.19
2018-08-19T00:48:58.052Z,19.19
2018-08-19T00:49:02.247Z,19.19
2018-08-19T00:49:06.344Z,19.18
2018-08-19T00:49:10.539Z,19.19
2018-08-19T00:49:14.845Z,19.18
2018-08-19T00:49:18.940Z,19.18
2018-08-19T00:49:23.139Z,19.19
2018-08-19T00:49:27.258Z,19.19
2018-08-19T00:49:31.459Z,19.19
2018-08-19T00:49:35.655Z,19.18
2018-08-19T00:49:39.955Z,19.19
2018-08-19T00:49:43.945Z,19.19
2018-08-19T00:49:48.261Z,19.19
2018-08-19T00:49:52.249Z,19.19
2018-08-19T00:49:56.443Z,19.18
2018-08-19T00:50:00.536Z,19.18
2018-08-19T00:50:04.843Z,19.18
2018-08-19T00:50:08.944Z,19.19
2018-08-19T00:50:13.140Z,19.19
2018-08-19T00:50:17.442Z,19.19
2018-08-19T00:50:21.535Z,19.19
2018-08-19T00:50:25.744Z,19.18
2018-08-19T00:50:29.836Z,19.18
2018-08-19T00:50:34.047Z,19.19
2018-08-19T00:50:38.357Z,19.19
2018-08-19T00:50:42.664Z,19.18
2018-08-19T00:50:46.865Z,19.19
2018-08-19T00:50:50.960Z,19.18
2018-08-19T00:50:55.159Z,19.18
2018-08-19T00:50:59.260Z,19.19
2018-08-19T00:51:03.353Z,19.18
2018-08-19T00:51:07.442Z,19.19
2018-08-19T00:51:11.741Z,19.19
2018-08-19T00:51:15.949Z,19.19
2018-08-19T00:51:20.253Z,19.18
2018-08-19T00:51:24.459Z,19.18
2018-08-19T00:51:28.661Z,19.18
2018-08-19T00:51:32.861Z,19.19
2018-08-19T00:51:37.168Z,19.17
2018-08-19T00:51:41.371Z,19.18
2018-08-19T00:51:45.676Z,19.18
2018-08-19T00:51:49.668Z,19.18
2018-08-19T00:51:53.987Z,19.17
2018-08-19T00:51:58.300Z,19.17
2018-08-19T00:52:02.503Z,19.17
2018-08-19T00:52:06.491Z,19.17
2018-08-19T00:52:10.701Z,19.17
2018-08-19T00:52:14.794Z,19.17
2018-08-19T00:52:19.003Z,19.17
2018-08-19T00:52:23.308Z,19.17
2018-08-19T00:52:27.402Z,19.17
2018-08-19T00:52:31.609Z,19.16
2018-08-19T00:52:35.822Z,19.17
2018-08-19T00:52:40.144Z,19.16
2018-08-19T00:52:44.453Z,19.16
2018-08-19T00:52:48.749Z,19.16
2018-08-19T00:52:52.745Z,19.16
2018-08-19T00:52:56.956Z,19.16
2018-08-19T00:53:01.259Z,19.16
2018-08-19T00:53:05.616Z,19.16
2018-08-19T00:53:09.709Z,19.14
2018-08-19T00:53:14.023Z,19.15
2018-08-19T00:53:18.113Z,19.15
2018-08-19T00:53:22.209Z,19.15
2018-08-19T00:53:26.303Z,19.14
2018-08-19T00:53:30.609Z,19.15
2018-08-19T00:53:34.809Z,19.15
2018-08-19T00:53:38.904Z,19.15
2018-08-19T00:53:42.892Z,19.15
2018-08-19T00:53:47.087Z,19.14
2018-08-19T00:53:51.289Z,19.15
2018-08-19T00:53:55.489Z,19.15
2018-08-19T00:53:59.795Z,19.15
2018-08-19T00:54:04.060Z,19.15
2018-08-19T00:54:08.263Z,19.15
2018-08-19T00:54:12.358Z,19.15
2018-08-19T00:54:16.560Z,19.16
2018-08-19T00:54:20.766Z,19.15
2018-08-19T00:54:24.962Z,19.15